Time;durP1;ratioP1;P1;durP2;ratioP2;P2;SDS_P1;SDS_P2;PMS_P1;PMS_P2;Temp;Humidity;BMP_temperature;BMP_pressure;BME280_temperature;BME280_humidity;BME280_pressure;Samples;Min_cycle;Max_cycle;Signal;HPM_P1;HPM_P2
2022/06/13 00:00:48;;;;;;;1.85;1.13;;;;;;;-143.85;100.00;70650.75;5032435;28;20029;-86
2022/06/13 00:03:13;;;;;;;1.45;1.35;;;;;;;-143.85;100.00;70650.75;5032632;28;20041;-85
2022/06/13 00:05:39;;;;;;;1.75;1.40;;;;;;;-143.85;100.00;70650.75;5034989;28;20049;-84
2022/06/13 00:08:04;;;;;;;6.43;1.27;;;;;;;-143.85;100.00;70650.75;5035180;28;20501;-85
2022/06/13 00:10:30;;;;;;;3.30;1.15;;;;;;;-143.85;100.00;70650.75;5035530;28;20030;-84
2022/06/13 00:12:55;;;;;;;1.52;1.40;;;;;;;-143.85;100.00;70650.75;5035483;28;20028;-84
2022/06/13 00:15:21;;;;;;;5.40;2.05;;;;;;;-143.85;100.00;70650.75;5034896;28;20051;-84
2022/06/13 00:17:46;;;;;;;1.05;1.00;;;;;;;-143.85;100.00;70650.75;5035870;28;20017;-84
2022/06/13 00:20:13;;;;;;;1.40;1.30;;;;;;;-143.85;100.00;70650.75;5034709;28;20466;-85
2022/06/13 00:22:39;;;;;;;1.83;1.42;;;;;;;-143.85;100.00;70650.75;5034623;28;20547;-85
2022/06/13 00:25:05;;;;;;;3.20;1.10;;;;;;;-143.85;100.00;70650.75;5034591;28;20029;-86
2022/06/13 00:27:31;;;;;;;1.20;1.02;;;;;;;-143.85;100.00;70650.75;5036113;28;20474;-85
2022/06/13 00:29:56;;;;;;;2.17;1.13;;;;;;;-143.85;100.00;70650.75;5034975;28;20053;-85
2022/06/13 00:32:22;;;;;;;6.95;1.30;;;;;;;-143.85;100.00;70650.75;5035664;28;20436;-85
2022/06/13 00:34:48;;;;;;;1.17;1.08;;;;;;;-143.85;100.00;70650.75;5035555;28;20481;-85
2022/06/13 00:37:13;;;;;;;2.13;0.98;;;;;;;-143.85;100.00;70650.75;5034271;28;20099;-85
2022/06/13 00:39:39;;;;;;;1.90;1.48;;;;;;;-143.85;100.00;70650.75;5035605;28;20075;-84
2022/06/13 00:42:05;;;;;;;2.47;1.08;;;;;;;-143.85;100.00;70650.75;5034770;28;20518;-85
2022/06/13 00:44:34;;;;;;;3.67;1.00;;;;;;;-143.85;100.00;70650.75;5034314;28;20029;-85
2022/06/13 00:47:00;;;;;;;1.80;1.08;;;;;;;-143.85;100.00;70650.75;5034283;28;20026;-85
2022/06/13 00:49:28;;;;;;;10.25;1.85;;;;;;;-143.85;100.00;70650.75;5034125;28;20027;-84
2022/06/13 00:52:09;;;;;;;3.25;1.70;;;;;;;-143.85;100.00;70650.75;5034348;28;20408;-85
2022/06/13 00:54:36;;;;;;;1.95;1.38;;;;;;;-143.85;100.00;70650.75;5034156;28;20032;-86
2022/06/13 00:57:02;;;;;;;1.42;1.20;;;;;;;-143.85;100.00;70650.75;5034130;28;20501;-85
2022/06/13 00:59:33;;;;;;;2.08;1.05;;;;;;;-143.85;100.00;70650.75;5034108;28;20021;-87
2022/06/13 01:01:59;;;;;;;1.55;1.27;;;;;;;-143.85;100.00;70650.75;5034395;28;20036;-87
2022/06/13 01:04:24;;;;;;;2.25;1.10;;;;;;;-143.85;100.00;70650.75;5034452;28;20037;-87
2022/06/13 01:06:51;;;;;;;1.23;0.90;;;;;;;-143.85;100.00;70650.75;5034265;28;20029;-90
2022/06/13 01:09:18;;;;;;;3.35;1.25;;;;;;;-143.85;100.00;70650.75;5034074;28;20523;-85
2022/06/13 01:11:50;;;;;;;2.42;1.48;;;;;;;-143.85;100.00;70650.75;5034022;28;20033;-86
2022/06/13 01:14:51;;;;;;;1.95;1.20;;;;;;;-143.85;100.00;70650.75;5033646;28;20034;-86
2022/06/13 01:17:20;;;;;;;2.40;1.20;;;;;;;-143.85;100.00;70650.75;4938730;29;20107;-85
2022/06/13 01:20:04;;;;;;;1.10;1.00;;;;;;;-143.85;100.00;70650.75;5018867;28;20409;-86
2022/06/13 01:22:48;;;;;;;2.17;1.58;;;;;;;-143.85;100.00;70650.75;5033814;28;20034;-86
2022/06/13 01:25:51;;;;;;;1.90;1.33;;;;;;;-143.85;100.00;70650.75;5034034;28;20029;-85
2022/06/13 01:28:34;;;;;;;1.13;1.02;;;;;;;-143.85;100.00;70650.75;5034120;28;20420;-84
2022/06/13 01:32:01;;;;;;;2.00;1.65;;;;;;;-143.85;100.00;70650.75;5034273;28;20026;-87
2022/06/13 01:34:26;;;;;;;1.42;1.33;;;;;;;-143.85;100.00;70650.75;4938562;29;20125;-86
2022/06/13 01:37:04;;;;;;;6.38;2.42;;;;;;;-143.85;100.00;70650.75;5030728;28;20505;-85
2022/06/13 01:40:05;;;;;;;3.03;1.23;;;;;;;-143.85;100.00;70650.75;5033543;28;20034;-87
2022/06/13 01:42:33;;;;;;;1.10;1.00;;;;;;;-143.85;100.00;70650.75;4938363;29;20039;-86
2022/06/13 01:45:37;;;;;;;2.30;1.35;;;;;;;-143.85;100.00;70650.75;5019122;28;20033;-85
2022/06/13 01:48:14;;;;;;;1.25;1.15;;;;;;;-143.85;100.00;70650.75;5032533;28;20033;-86
2022/06/13 01:50:57;;;;;;;2.70;1.20;;;;;;;-143.85;100.00;70650.75;5034588;28;20056;-85
2022/06/13 01:53:56;;;;;;;1.80;1.23;;;;;;;-143.85;100.00;70650.75;5033629;28;20061;-84
2022/06/13 01:56:43;;;;;;;2.47;1.35;;;;;;;-143.85;100.00;70650.75;5032755;28;20032;-84
2022/06/13 01:59:29;;;;;;;1.92;1.42;;;;;;;-143.85;100.00;70650.75;5032740;28;20124;-84
2022/06/13 02:02:12;;;;;;;2.15;1.35;;;;;;;-143.85;100.00;70650.75;5016311;28;20033;-84
2022/06/13 02:04:44;;;;;;;3.38;1.33;;;;;;;-143.85;100.00;70650.75;5032475;28;20069;-85
2022/06/13 02:07:19;;;;;;;1.13;1.00;;;;;;;-143.85;100.00;70650.75;5033057;28;20033;-85
2022/06/13 02:09:52;;;;;;;2.28;1.65;;;;;;;-143.85;100.00;70650.75;5033879;28;20029;-85
2022/06/13 02:12:20;;;;;;;4.55;1.50;;;;;;;-143.85;100.00;70650.75;5032981;28;20485;-84
2022/06/13 02:14:52;;;;;;;;;;;;;;;-143.85;100.00;70650.75;5032919;28;20033;-85
2022/06/13 02:17:20;;;;;;;2.10;1.35;;;;;;;-143.85;100.00;70650.75;5032508;28;20387;-85
2022/06/13 02:19:52;;;;;;;3.15;1.73;;;;;;;-143.85;100.00;70650.75;5032497;28;20026;-86
2022/06/13 02:22:33;;;;;;;1.10;1.10;;;;;;;-143.85;100.00;70650.75;5032580;28;20033;-86
2022/06/13 02:25:06;;;;;;;1.77;1.00;;;;;;;-143.85;100.00;70650.75;5032172;28;20029;-86
2022/06/13 02:27:37;;;;;;;2.03;1.48;;;;;;;-143.85;100.00;70650.75;5032540;28;20482;-85
2022/06/13 02:30:16;;;;;;;1.70;1.30;;;;;;;-143.85;100.00;70650.75;5032391;28;20022;-86
2022/06/13 02:32:52;;;;;;;2.25;1.48;;;;;;;-143.85;100.00;70650.75;5032456;28;20032;-86
2022/06/13 02:35:27;;;;;;;1.25;1.15;;;;;;;-143.85;100.00;70650.75;5033650;28;20057;-85
2022/06/13 02:38:24;;;;;;;2.35;1.38;;;;;;;-143.85;100.00;70650.75;5033517;28;20033;-86
2022/06/13 02:41:05;;;;;;;1.03;0.90;;;;;;;-143.85;100.00;70650.75;5033872;28;20073;-86
2022/06/13 02:43:51;;;;;;;1.67;1.38;;;;;;;-143.85;100.00;70650.75;5033460;28;20035;-86
2022/06/13 02:46:29;;;;;;;2.75;1.20;;;;;;;-143.85;100.00;70650.75;5032655;28;20025;-86
2022/06/13 02:49:01;;;;;;;11.38;1.35;;;;;;;-143.85;100.00;70650.75;5032997;28;20567;-86
2022/06/13 02:51:38;;;;;;;1.45;1.05;;;;;;;-143.85;100.00;70650.75;5032732;28;20048;-86
2022/06/13 02:54:29;;;;;;;3.30;1.77;;;;;;;-143.85;100.00;70650.75;5032521;28;20083;-85
2022/06/13 03:00:25;;;;;;;1.10;1.00;;;;;;;-143.85;100.00;70650.75;5033321;28;20171;-85
2022/06/13 03:03:00;;;;;;;0.75;0.75;;;;;;;-143.85;100.00;70650.75;5031674;28;20026;-85
2022/06/13 03:05:41;;;;;;;1.42;1.02;;;;;;;-143.85;100.00;70650.75;5033413;28;20061;-86
2022/06/13 03:08:34;;;;;;;2.40;1.13;;;;;;;-143.85;100.00;70650.75;5032381;28;20037;-85
2022/06/13 03:11:27;;;;;;;0.68;0.68;;;;;;;-143.85;100.00;70650.75;5032755;28;20481;-86
2022/06/13 03:14:29;;;;;;;2.95;1.35;;;;;;;-143.85;100.00;70650.75;5033093;28;20026;-86
2022/06/13 03:17:24;;;;;;;0.75;0.75;;;;;;;-143.85;100.00;70650.75;5032614;28;20040;-85
2022/06/13 03:19:53;;;;;;;1.52;0.90;;;;;;;-143.85;100.00;70650.75;5004013;28;20052;-86
2022/06/13 03:22:25;;;;;;;2.08;1.00;;;;;;;-143.85;100.00;70650.75;5031780;28;20028;-85
2022/06/13 03:25:08;;;;;;;1.70;1.17;;;;;;;-143.85;100.00;70650.75;5032310;28;20145;-85
2022/06/13 03:27:51;;;;;;;2.55;1.35;;;;;;;-143.85;100.00;70650.75;5031699;28;20112;-85
2022/06/13 03:30:21;;;;;;;2.55;1.65;;;;;;;-143.85;100.00;70650.75;5031721;28;20036;-86
2022/06/13 03:35:42;;;;;;;1.58;1.27;;;;;;;-143.85;100.00;70650.75;5032736;28;20072;-87
2022/06/13 03:38:13;;;;;;;1.35;1.15;;;;;;;-143.85;100.00;70650.75;5035015;28;20029;-86
2022/06/13 03:40:43;;;;;;;1.23;1.13;;;;;;;-143.85;100.00;70650.75;5036384;28;20029;-86
2022/06/13 03:43:17;;;;;;;1.65;1.23;;;;;;;-143.85;100.00;70650.75;5035492;28;20029;-85
2022/06/13 03:45:49;;;;;;;1.10;1.00;;;;;;;-143.85;100.00;70650.75;5036074;28;20034;-85
2022/06/13 03:48:16;;;;;;;5.88;1.48;;;;;;;-143.85;100.00;70650.75;5035951;28;20382;-85
2022/06/13 03:50:51;;;;;;;2.28;1.73;;;;;;;-143.85;100.00;70650.75;5035503;28;20061;-86
2022/06/13 03:53:25;;;;;;;2.47;1.58;;;;;;;-143.85;100.00;70650.75;5036070;28;20029;-86
2022/06/13 03:56:20;;;;;;;0.85;0.73;;;;;;;-143.85;100.00;70650.75;5035529;28;20469;-86
2022/06/13 03:59:05;;;;;;;2.35;1.25;;;;;;;-143.85;100.00;70650.75;4993689;28;20091;-86
2022/06/13 04:01:36;;;;;;;0.85;0.85;;;;;;;-143.85;100.00;70650.75;5036102;28;20115;-87
2022/06/13 04:04:02;;;;;;;1.70;1.55;;;;;;;-143.85;100.00;70650.75;5036797;28;20026;-87
2022/06/13 04:06:40;;;;;;;1.90;1.05;;;;;;;-143.85;100.00;70650.75;5036649;28;20029;-86
2022/06/13 04:09:22;;;;;;;1.65;1.20;;;;;;;-143.85;100.00;70650.75;5035483;28;20545;-87
2022/06/13 04:12:11;;;;;;;1.42;1.25;;;;;;;-143.85;100.00;70650.75;5035703;28;20541;-86
2022/06/13 04:15:07;;;;;;;0.85;0.85;;;;;;;-143.85;100.00;70650.75;5036031;28;20022;-86
2022/06/13 04:17:53;;;;;;;1.58;1.40;;;;;;;-143.85;100.00;70650.75;5035849;28;20153;-86
2022/06/13 04:20:52;;;;;;;1.60;1.42;;;;;;;-143.85;100.00;70650.75;5036483;28;20116;-88
2022/06/13 04:23:30;;;;;;;2.20;1.85;;;;;;;-143.85;100.00;70650.75;5035467;28;20060;-86
2022/06/13 04:26:16;;;;;;;2.50;1.48;;;;;;;-143.85;100.00;70650.75;5034662;28;20021;-86
2022/06/13 04:29:08;;;;;;;1.23;0.98;;;;;;;-143.85;100.00;70650.75;5035094;28;20549;-87
2022/06/13 04:31:35;;;;;;;1.42;1.10;;;;;;;-143.85;100.00;70650.75;5034395;28;20040;-86
2022/06/13 04:34:06;;;;;;;1.13;1.02;;;;;;;-143.85;100.00;70650.75;5034666;28;20448;-86
2022/06/13 04:36:33;;;;;;;1.60;0.90;;;;;;;-143.85;100.00;70650.75;5034621;28;20084;-86
2022/06/13 04:39:03;;;;;;;1.38;0.82;;;;;;;-143.85;100.00;70650.75;5034703;28;20439;-87
2022/06/13 04:41:33;;;;;;;0.68;0.68;;;;;;;-143.85;100.00;70650.75;5034915;28;20037;-87
2022/06/13 04:44:03;;;;;;;8.07;1.00;;;;;;;-143.85;100.00;70650.75;5034615;28;20033;-89
2022/06/13 04:46:30;;;;;;;1.02;0.90;;;;;;;-143.85;100.00;70650.75;5034715;28;20026;-86
2022/06/13 04:49:02;;;;;;;4.55;0.80;;;;;;;-143.85;100.00;70650.75;5033766;28;20033;-87
2022/06/13 04:51:37;;;;;;;5.72;1.17;;;;;;;-143.85;100.00;70650.75;5035561;28;20095;-87
2022/06/13 04:54:23;;;;;;;1.15;0.90;;;;;;;-143.85;100.00;70650.75;5034569;28;20025;-85
2022/06/13 04:56:49;;;;;;;1.10;0.93;;;;;;;-143.85;100.00;70650.75;5034925;28;20036;-89
2022/06/13 04:59:16;;;;;;;3.47;0.70;;;;;;;-143.85;100.00;70650.75;5034204;28;20029;-87
2022/06/13 05:01:45;;;;;;;0.50;0.50;;;;;;;-143.85;100.00;70650.75;5034557;28;20025;-87
2022/06/13 05:04:18;;;;;;;0.93;0.85;;;;;;;-143.85;100.00;70650.75;5034136;28;20030;-87
2022/06/13 05:06:53;;;;;;;0.88;0.88;;;;;;;-143.85;100.00;70650.75;5035449;28;20036;-89
2022/06/13 05:09:24;;;;;;;1.48;1.10;;;;;;;-143.85;100.00;70650.75;5034891;28;20074;-88
2022/06/13 05:12:06;;;;;;;1.23;0.88;;;;;;;-143.85;100.00;70650.75;5035302;28;20059;-90
2022/06/13 05:14:43;;;;;;;1.33;0.80;;;;;;;-143.85;100.00;70650.75;5033967;28;20025;-89
2022/06/13 05:17:09;;;;;;;1.08;0.85;;;;;;;-143.85;100.00;70650.75;5034054;28;20028;-88
2022/06/13 05:19:48;;;;;;;1.42;0.93;;;;;;;-143.85;100.00;70650.75;5034065;28;20022;-88
2022/06/13 05:22:33;;;;;;;1.17;0.85;;;;;;;-143.85;100.00;70650.75;5035862;28;20029;-88
2022/06/13 05:25:04;;;;;;;0.70;0.70;;;;;;;-143.85;100.00;70650.75;5034154;28;20481;-88
2022/06/13 05:27:30;;;;;;;5.97;1.27;;;;;;;-143.85;100.00;70650.75;5033670;28;20050;-88
2022/06/13 05:29:55;;;;;;;1.95;0.80;;;;;;;-143.85;100.00;70650.75;5035311;28;20100;-88
2022/06/13 05:32:22;;;;;;;2.15;0.70;;;;;;;-143.85;100.00;70650.75;5033722;28;20032;-89
2022/06/13 05:34:49;;;;;;;1.20;0.90;;;;;;;-143.85;100.00;70650.75;5033618;28;20030;-91
2022/06/13 05:37:16;;;;;;;1.20;0.88;;;;;;;-143.85;100.00;70650.75;5033323;28;20417;-90
2022/06/13 05:39:42;;;;;;;1.30;0.95;;;;;;;-143.85;100.00;70650.75;5034035;28;20022;-90
2022/06/13 05:42:10;;;;;;;0.68;0.68;;;;;;;-143.85;100.00;70650.75;5033873;28;20025;-90
2022/06/13 05:44:36;;;;;;;1.02;0.93;;;;;;;-143.85;100.00;70650.75;5034098;28;20029;-88
2022/06/13 05:47:01;;;;;;;0.85;0.85;;;;;;;-143.85;100.00;70650.75;5033803;28;20456;-89
2022/06/13 05:49:27;;;;;;;1.13;0.90;;;;;;;-143.85;100.00;70650.75;5033869;28;20048;-93
2022/06/13 05:51:52;;;;;;;1.30;0.82;;;;;;;-143.85;100.00;70650.75;5033673;28;20033;-89
2022/06/13 05:54:18;;;;;;;1.98;1.10;;;;;;;-143.85;100.00;70650.75;5033622;28;20473;-92
2022/06/13 05:56:43;;;;;;;1.38;1.27;;;;;;;-143.85;100.00;70650.75;5033997;28;20116;-90
2022/06/13 05:59:09;;;;;;;0.93;0.82;;;;;;;-143.85;100.00;70650.75;5033054;28;20501;-90
2022/06/13 06:01:43;;;;;;;1.50;0.95;;;;;;;-143.85;100.00;70650.75;5032276;28;20033;-88
2022/06/13 06:04:08;;;;;;;0.75;0.75;;;;;;;-143.85;100.00;70650.75;5033547;28;20045;-88
2022/06/13 06:06:34;;;;;;;1.85;0.80;;;;;;;-143.85;100.00;70650.75;5033221;28;20029;-88
2022/06/13 06:09:01;;;;;;;1.27;1.13;;;;;;;-143.85;100.00;70650.75;5032969;28;20036;-89
2022/06/13 06:11:29;;;;;;;1.80;0.90;;;;;;;-143.85;100.00;70650.75;5032567;28;20033;-89
2022/06/13 06:13:55;;;;;;;1.63;0.82;;;;;;;-143.85;100.00;70650.75;5032488;28;20596;-90
2022/06/13 06:16:23;;;;;;;1.00;0.73;;;;;;;-143.85;100.00;70650.75;5032737;28;20120;-89
2022/06/13 06:18:49;;;;;;;0.57;0.40;;;;;;;-143.85;100.00;70650.75;5032777;28;20040;-89
2022/06/13 06:21:14;;;;;;;1.77;0.90;;;;;;;-143.85;100.00;70650.75;5032693;28;20052;-88
2022/06/13 06:23:40;;;;;;;1.08;0.82;;;;;;;-143.85;100.00;70650.75;5032641;28;20033;-89
2022/06/13 06:26:07;;;;;;;1.15;0.90;;;;;;;-143.85;100.00;70650.75;5032557;28;20485;-88
2022/06/13 06:28:33;;;;;;;1.15;0.70;;;;;;;-143.85;100.00;70650.75;5032422;28;20103;-92
2022/06/13 06:31:00;;;;;;;1.15;0.93;;;;;;;-143.85;100.00;70650.75;5032342;28;20033;-92
2022/06/13 06:33:27;;;;;;;1.85;0.93;;;;;;;-143.85;100.00;70650.75;5032291;28;20041;-90
2022/06/13 06:35:54;;;;;;;1.27;0.70;;;;;;;-143.85;100.00;70650.75;5031918;28;20571;-88
2022/06/13 06:38:45;;;;;;;1.10;0.70;;;;;;;-143.85;100.00;70650.75;5032462;28;20511;-90
2022/06/13 06:41:11;;;;;;;1.42;0.90;;;;;;;-143.85;100.00;70650.75;4988953;28;20516;-86
2022/06/13 06:43:36;;;;;;;3.80;1.10;;;;;;;-143.85;100.00;70650.75;5032360;28;20025;-89
2022/06/13 06:46:02;;;;;;;0.85;0.77;;;;;;;-143.85;100.00;70650.75;5032463;28;20040;-88
2022/06/13 06:48:28;;;;;;;0.60;0.60;;;;;;;-143.85;100.00;70650.75;5032359;28;20036;-90
2022/06/13 06:50:54;;;;;;;1.30;1.15;;;;;;;-143.85;100.00;70650.75;5032267;28;20041;-88
2022/06/13 06:53:23;;;;;;;1.05;1.00;;;;;;;-143.85;100.00;70650.75;5032112;28;20029;-92
2022/06/13 07:01:18;;;;;;;0.80;0.80;;;;;;;-143.85;100.00;70650.75;5034020;28;20527;-90
2022/06/13 07:03:44;;;;;;;1.02;0.93;;;;;;;-143.85;100.00;70650.75;5033436;28;20389;-91
2022/06/13 07:06:11;;;;;;;0.82;0.82;;;;;;;-143.85;100.00;70650.75;5032324;28;20033;-89
2022/06/13 07:08:37;;;;;;;0.80;0.80;;;;;;;-143.85;100.00;70650.75;5032122;28;20175;-90
2022/06/13 07:13:55;;;;;;;0.95;0.75;;;;;;;-143.85;100.00;70650.75;5033524;28;20048;-89
2022/06/13 07:16:20;;;;;;;1.50;1.08;;;;;;;-143.85;100.00;70650.75;5031965;28;20026;-90
2022/06/13 07:18:46;;;;;;;1.05;0.82;;;;;;;-143.85;100.00;70650.75;5032164;28;20018;-91
2022/06/13 07:21:13;;;;;;;1.77;1.10;;;;;;;-143.85;100.00;70650.75;5032968;28;20029;-90
2022/06/13 07:23:39;;;;;;;1.10;1.00;;;;;;;-143.85;100.00;70650.75;5032116;28;20025;-92
2022/06/13 07:26:05;;;;;;;0.77;0.77;;;;;;;-143.85;100.00;70650.75;5031740;28;20500;-91
2022/06/13 07:28:30;;;;;;;0.70;0.60;;;;;;;-143.85;100.00;70650.75;5032095;28;20035;-92
2022/06/13 07:30:56;;;;;;;1.00;0.90;;;;;;;-143.85;100.00;70650.75;5031974;28;20470;-92
2022/06/13 07:33:22;;;;;;;0.98;0.82;;;;;;;-143.85;100.00;70650.75;5032103;28;20477;-91
2022/06/13 07:35:47;;;;;;;1.05;0.98;;;;;;;-143.85;100.00;70650.75;5031504;28;20053;-90
2022/06/13 07:38:19;;;;;;;0.82;0.80;;;;;;;-143.85;100.00;70650.75;5032411;28;20021;-91
2022/06/13 07:40:48;;;;;;;0.75;0.75;;;;;;;-143.85;100.00;70650.75;5032046;28;20025;-92
2022/06/13 07:43:26;;;;;;;1.88;1.40;;;;;;;-143.85;100.00;70650.75;5031651;28;20469;-91
2022/06/13 07:45:52;;;;;;;0.70;0.70;;;;;;;-143.85;100.00;70650.75;5032280;28;20029;-90
2022/06/13 07:48:18;;;;;;;0.83;0.80;;;;;;;-143.85;100.00;70650.75;5032015;28;20021;-93
2022/06/13 07:50:44;;;;;;;0.90;0.82;;;;;;;-143.85;100.00;70650.75;5031848;28;20091;-93
2022/06/13 07:53:10;;;;;;;0.93;0.93;;;;;;;-143.85;100.00;70650.75;5032290;28;20063;-92
2022/06/13 07:55:36;;;;;;;1.52;0.93;;;;;;;-143.85;100.00;70650.75;5032309;28;20033;-91
2022/06/13 07:58:02;;;;;;;4.78;0.93;;;;;;;-143.85;100.00;70650.75;5031738;28;20032;-87
2022/06/13 08:00:34;;;;;;;2.00;1.00;;;;;;;-143.85;100.00;70650.75;5031593;28;20497;-85
2022/06/13 08:03:01;;;;;;;1.08;0.98;;;;;;;-143.85;100.00;70650.75;5031162;28;20029;-86
2022/06/13 08:05:28;;;;;;;2.28;1.23;;;;;;;-143.85;100.00;70650.75;5031144;28;20065;-87
2022/06/13 08:07:53;;;;;;;1.33;1.10;;;;;;;-143.85;100.00;70650.75;5032554;28;20038;-87
2022/06/13 08:10:19;;;;;;;1.50;1.02;;;;;;;-143.85;100.00;70650.75;5030963;28;20026;-87
2022/06/13 08:12:45;;;;;;;1.25;1.15;;;;;;;-143.85;100.00;70650.75;5032598;28;20025;-86
2022/06/13 08:15:12;;;;;;;1.23;0.98;;;;;;;-143.85;100.00;70650.75;5031606;28;20036;-87
2022/06/13 08:17:37;;;;;;;1.45;1.05;;;;;;;-143.85;100.00;70650.75;5032229;28;20454;-87
2022/06/13 08:20:03;;;;;;;2.22;1.30;;;;;;;-143.85;100.00;70650.75;5032738;28;20084;-89
2022/06/13 08:22:29;;;;;;;4.60;1.20;;;;;;;-143.85;100.00;70650.75;5031403;28;20060;-86
2022/06/13 08:24:54;;;;;;;1.20;1.10;;;;;;;-143.85;100.00;70650.75;5033763;28;20123;-86
2022/06/13 08:27:20;;;;;;;1.95;1.48;;;;;;;-143.85;100.00;70650.75;5035196;28;20404;-85
2022/06/13 08:29:46;;;;;;;2.65;1.58;;;;;;;-143.85;100.00;70650.75;5034745;28;20040;-86
2022/06/13 08:32:12;;;;;;;1.50;1.33;;;;;;;-143.85;100.00;70650.75;5035064;28;20057;-86
2022/06/13 08:34:38;;;;;;;1.10;1.00;;;;;;;-143.85;100.00;70650.75;5034614;28;20409;-86
2022/06/13 08:37:04;;;;;;;2.13;0.82;;;;;;;-143.85;100.00;70650.75;5036362;28;20107;-85
2022/06/13 08:39:29;;;;;;;2.08;1.25;;;;;;;-143.85;100.00;70650.75;5034574;28;20030;-85
2022/06/13 08:42:16;;;;;;;2.40;1.48;;;;;;;-143.85;100.00;70650.75;5034660;28;20029;-86
2022/06/13 08:45:00;;;;;;;2.90;1.52;;;;;;;-143.85;100.00;70650.75;5034186;28;20033;-85
2022/06/13 08:47:44;;;;;;;2.83;1.50;;;;;;;-143.85;100.00;70650.75;5035054;28;20041;-85
2022/06/13 08:50:33;;;;;;;2.53;1.25;;;;;;;-143.85;100.00;70650.75;5034348;28;20033;-85
2022/06/13 08:53:20;;;;;;;1.17;1.08;;;;;;;-143.85;100.00;70650.75;5034844;28;20120;-86
2022/06/13 08:55:45;;;;;;;1.25;1.15;;;;;;;-143.85;100.00;70650.75;5034585;28;20057;-86
2022/06/13 08:58:11;;;;;;;2.28;1.75;;;;;;;-143.85;100.00;70650.75;5034107;28;20573;-85
2022/06/13 09:00:43;;;;;;;2.28;1.63;;;;;;;-143.85;100.00;70650.75;5035569;28;20025;-86
2022/06/13 09:03:14;;;;;;;1.60;1.50;;;;;;;-143.85;100.00;70650.75;5035262;28;20029;-86
2022/06/13 09:05:51;;;;;;;1.70;1.35;;;;;;;-143.85;100.00;70650.75;5034568;28;20084;-86
2022/06/13 09:08:29;;;;;;;2.10;1.45;;;;;;;-143.85;100.00;70650.75;5034226;28;20026;-85
2022/06/13 09:11:03;;;;;;;;;;;;;;;-143.85;100.00;70650.75;5034299;28;20513;-86
2022/06/13 09:13:50;;;;;;;1.77;1.30;;;;;;;-143.85;100.00;70650.75;5034174;28;19909;-85
2022/06/13 09:16:21;;;;;;;;;;;;;;;-143.85;100.00;70650.75;5034639;28;20033;-86
2022/06/13 09:18:59;;;;;;;2.17;1.23;;;;;;;-143.85;100.00;70650.75;5034685;28;19913;-87
2022/06/13 09:21:52;;;;;;;3.28;1.75;;;;;;;-143.85;100.00;70650.75;5034495;28;20037;-87
2022/06/13 09:24:32;;;;;;;3.63;1.55;;;;;;;-143.85;100.00;70650.75;5034527;28;20029;-88
2022/06/13 09:27:07;;;;;;;2.45;1.63;;;;;;;-143.85;100.00;70650.75;5033857;28;20567;-87
2022/06/13 09:29:51;;;;;;;2.83;1.65;;;;;;;-143.85;100.00;70650.75;5033841;28;20485;-86
2022/06/13 09:32:20;;;;;;;1.92;1.42;;;;;;;-143.85;100.00;70650.75;5034286;28;20021;-87
2022/06/13 09:34:51;;;;;;;1.77;1.58;;;;;;;-143.85;100.00;70650.75;5034457;28;20037;-86
2022/06/13 09:37:27;;;;;;;3.40;1.40;;;;;;;-143.85;100.00;70650.75;5034630;28;20034;-84
2022/06/13 09:39:53;;;;;;;2.20;1.30;;;;;;;-143.85;100.00;70650.75;5034563;28;20036;-85
2022/06/13 09:42:37;;;;;;;4.78;1.30;;;;;;;-143.85;100.00;70650.75;5033001;28;20037;-84
2022/06/13 09:45:15;;;;;;;2.63;1.67;;;;;;;-143.85;100.00;70650.75;5033714;28;20017;-84
2022/06/13 09:48:04;;;;;;;3.90;1.83;;;;;;;-143.85;100.00;70650.75;5033465;28;20130;-87
2022/06/13 09:50:49;;;;;;;2.25;1.30;;;;;;;-143.85;100.00;70650.75;5033155;28;20080;-86
2022/06/13 09:53:28;;;;;;;2.53;1.85;;;;;;;-143.85;100.00;70650.75;5033386;28;20409;-85
2022/06/13 09:56:04;;;;;;;2.20;1.98;;;;;;;-143.85;100.00;70650.75;5032974;28;20389;-86
2022/06/13 09:58:55;;;;;;;3.58;2.08;;;;;;;-143.85;100.00;70650.75;5033367;28;20056;-86
2022/06/13 10:01:52;;;;;;;3.15;2.00;;;;;;;-143.85;100.00;70650.75;5033550;28;20075;-86
2022/06/13 10:04:26;;;;;;;3.10;2.10;;;;;;;-143.85;100.00;70650.75;5033514;28;20033;-86
2022/06/13 10:07:01;;;;;;;1.60;1.38;;;;;;;-143.85;100.00;70650.75;5032875;28;20033;-86
2022/06/13 10:09:51;;;;;;;1.70;1.60;;;;;;;-143.85;100.00;70650.75;5033817;28;20058;-87
2022/06/13 10:12:19;;;;;;;2.47;1.52;;;;;;;-143.85;100.00;70650.75;5032829;28;20064;-86
2022/06/13 10:15:02;;;;;;;1.77;1.45;;;;;;;-143.85;100.00;70650.75;5034142;28;20033;-86
2022/06/13 10:17:33;;;;;;;2.95;2.53;;;;;;;-143.85;100.00;70650.75;5034255;28;20060;-86
2022/06/13 10:20:03;;;;;;;1.55;1.35;;;;;;;-143.85;100.00;70650.75;5033784;28;20048;-86
2022/06/13 10:22:56;;;;;;;1.92;1.67;;;;;;;-143.85;100.00;70650.75;5033296;28;20030;-85
2022/06/13 10:25:40;;;;;;;2.75;1.50;;;;;;;-143.85;100.00;70650.75;5033203;28;20532;-86
2022/06/13 10:28:18;;;;;;;3.70;1.92;;;;;;;-143.85;100.00;70650.75;5032985;28;20017;-86
2022/06/13 10:31:03;;;;;;;2.40;1.83;;;;;;;-143.85;100.00;70650.75;5032529;28;20494;-85
2022/06/13 10:33:44;;;;;;;1.83;1.27;;;;;;;-143.85;100.00;70650.75;5032715;28;20481;-86
2022/06/13 10:36:15;;;;;;;2.80;1.80;;;;;;;-143.85;100.00;70650.75;5031912;28;20088;-86
2022/06/13 10:39:15;;;;;;;1.77;1.58;;;;;;;-143.85;100.00;70650.75;5032279;28;20029;-86
2022/06/13 10:41:45;;;;;;;4.07;1.58;;;;;;;-143.85;100.00;70650.75;4990780;28;20098;-87
2022/06/13 10:44:14;;;;;;;2.25;1.70;;;;;;;-143.85;100.00;70650.75;5032188;28;20121;-86
2022/06/13 10:46:55;;;;;;;2.50;2.13;;;;;;;-143.85;100.00;70650.75;5032100;28;20040;-86
2022/06/13 10:49:27;;;;;;;3.25;1.77;;;;;;;-143.85;100.00;70650.75;5032938;28;20037;-86
2022/06/13 10:51:59;;;;;;;6.38;2.95;;;;;;;-143.85;100.00;70650.75;5032569;28;20540;-86
2022/06/13 10:54:31;;;;;;;2.38;1.95;;;;;;;-143.85;100.00;70650.75;5032273;28;20034;-86
2022/06/13 10:57:02;;;;;;;1.85;1.63;;;;;;;-143.85;100.00;70650.75;5031995;28;20034;-86
2022/06/13 10:59:32;;;;;;;1.70;1.60;;;;;;;-143.85;100.00;70650.75;5032482;28;20018;-86
2022/06/13 11:02:02;;;;;;;2.92;1.65;;;;;;;-143.85;100.00;70650.75;5031753;28;20030;-86
2022/06/13 11:04:33;;;;;;;2.55;1.95;;;;;;;-143.85;100.00;70650.75;5032302;28;20021;-86
2022/06/13 11:07:04;;;;;;;1.80;1.48;;;;;;;-143.85;100.00;70650.75;5033133;28;20036;-86
2022/06/13 11:09:43;;;;;;;2.55;1.83;;;;;;;-143.85;100.00;70650.75;5031983;28;20029;-87
2022/06/13 11:12:21;;;;;;;2.20;1.88;;;;;;;-143.85;100.00;70650.75;5031954;28;20482;-86
2022/06/13 11:23:20;;;;;;;2.08;1.77;;;;;;;-143.85;100.00;70650.75;5033258;28;20033;-86
2022/06/13 11:25:55;;;;;;;3.30;1.70;;;;;;;-143.85;100.00;70650.75;5031506;28;20033;-86
2022/06/13 11:28:24;;;;;;;2.38;1.80;;;;;;;-143.85;100.00;70650.75;5032339;28;20025;-86
2022/06/13 11:31:18;;;;;;;2.20;1.63;;;;;;;-143.85;100.00;70650.75;5032790;28;20413;-86
2022/06/13 11:33:43;;;;;;;2.33;2.08;;;;;;;-143.85;100.00;70650.75;5031857;28;20043;-86
2022/06/13 11:36:12;;;;;;;2.83;1.92;;;;;;;-143.85;100.00;70650.75;5031278;28;20486;-87
2022/06/13 11:38:52;;;;;;;3.13;1.70;;;;;;;-143.85;100.00;70650.75;5031619;28;20124;-86
2022/06/13 11:41:42;;;;;;;2.15;1.75;;;;;;;-143.85;100.00;70650.75;5031799;28;20033;-86
2022/06/13 11:44:15;;;;;;;2.50;1.65;;;;;;;-143.85;100.00;70650.75;5032066;28;20425;-85
2022/06/13 11:47:01;;;;;;;2.17;1.42;;;;;;;-143.85;100.00;70650.75;5032629;28;20103;-86
2022/06/13 11:49:29;;;;;;;2.60;1.50;;;;;;;-143.85;100.00;70650.75;5032258;28;20060;-86
2022/06/13 11:52:01;;;;;;;1.40;1.30;;;;;;;-143.85;100.00;70650.75;5032659;28;20116;-85
2022/06/13 11:54:26;;;;;;;4.68;2.13;;;;;;;-143.85;100.00;70650.75;5031737;28;20026;-85
2022/06/13 11:57:17;;;;;;;2.35;1.42;;;;;;;-143.85;100.00;70650.75;5032606;28;20456;-86
2022/06/13 11:59:49;;;;;;;1.50;1.38;;;;;;;-143.85;100.00;70650.75;5035348;28;20535;-86
2022/06/13 12:02:25;;;;;;;1.50;1.40;;;;;;;-143.85;100.00;70650.75;5036725;28;20021;-86